sensor_id;sensor_type;location;lat;lon;timestamp;temperature;humidity
6210;DHT22;3138;52.550;13.148;2023-05-01T00:00:48;3.50;99.90
6210;DHT22;3138;52.550;13.148;2023-05-01T00:03:17;3.40;99.90
6210;DHT22;3138;52.550;13.148;2023-05-01T00:05:44;3.30;1.00
6210;DHT22;3138;52.550;13.148;2023-05-01T00:08:12;3.30;1.00
6210;DHT22;3138;52.550;13.148;2023-05-01T00:10:40;3.20;1.00
6210;DHT22;3138;52.550;13.148;2023-05-01T00:13:09;3.30;1.00
6210;DHT22;3138;52.550;13.148;2023-05-01T00:15:36;3.30;1.00
6210;DHT22;3138;52.550;13.148;2023-05-01T00:18:07;3.30;74.80
6210;DHT22;3138;52.550;13.148;2023-05-01T00:20:34;3.30;99.90
6210;DHT22;3138;52.550;13.148;2023-05-01T00:23:01;3.10;99.90
6210;DHT22;3138;52.550;13.148;2023-05-01T00:25:28;3.00;99.90
6210;DHT22;3138;52.550;13.148;2023-05-01T00:27:57;3.10;99.90
6210;DHT22;3138;52.550;13.148;2023-05-01T00:30:24;3.00;1.00
6210;DHT22;3138;52.550;13.148;2023-05-01T00:32:52;2.90;1.00
6210;DHT22;3138;52.550;13.148;2023-05-01T00:35:19;2.80;1.00
6210;DHT22;3138;52.550;13.148;2023-05-01T00:37:45;2.70;99.90
6210;DHT22;3138;52.550;13.148;2023-05-01T00:40:12;2.60;99.90
6210;DHT22;3138;52.550;13.148;2023-05-01T00:42:39;2.60;1.00
6210;DHT22;3138;52.550;13.148;2023-05-01T00:45:08;2.50;1.00
6210;DHT22;3138;52.550;13.148;2023-05-01T00:47:35;2.50;1.00
6210;DHT22;3138;52.550;13.148;2023-05-01T00:50:03;2.50;1.00
6210;DHT22;3138;52.550;13.148;2023-05-01T00:52:30;2.30;1.00
6210;DHT22;3138;52.550;13.148;2023-05-01T00:54:57;2.40;1.00
6210;DHT22;3138;52.550;13.148;2023-05-01T00:57:24;2.40;21.50
6210;DHT22;3138;52.550;13.148;2023-05-01T00:59:51;2.30;1.00
6210;DHT22;3138;52.550;13.148;2023-05-01T01:02:19;2.10;1.00
6210;DHT22;3138;52.550;13.148;2023-05-01T01:04:47;2.00;1.00
6210;DHT22;3138;52.550;13.148;2023-05-01T01:07:18;2.00;1.00
6210;DHT22;3138;52.550;13.148;2023-05-01T01:10:00;1.90;1.00
6210;DHT22;3138;52.550;13.148;2023-05-01T01:12:32;2.00;1.00
6210;DHT22;3138;52.550;13.148;2023-05-01T01:15:07;1.90;1.00
6210;DHT22;3138;52.550;13.148;2023-05-01T01:17:41;1.90;1.00
6210;DHT22;3138;52.550;13.148;2023-05-01T01:23:34;1.80;1.00
6210;DHT22;3138;52.550;13.148;2023-05-01T01:26:13;2.00;99.90
6210;DHT22;3138;52.550;13.148;2023-05-01T01:31:59;1.90;99.90
6210;DHT22;3138;52.550;13.148;2023-05-01T01:34:34;1.80;99.90
6210;DHT22;3138;52.550;13.148;2023-05-01T01:37:04;1.70;99.90
6210;DHT22;3138;52.550;13.148;2023-05-01T01:39:52;1.80;99.90
6210;DHT22;3138;52.550;13.148;2023-05-01T01:42:25;1.70;99.90
6210;DHT22;3138;52.550;13.148;2023-05-01T01:45:00;1.60;99.90
6210;DHT22;3138;52.550;13.148;2023-05-01T01:47:30;1.60;99.90
6210;DHT22;3138;52.550;13.148;2023-05-01T01:50:02;1.50;99.90
6210;DHT22;3138;52.550;13.148;2023-05-01T01:52:32;1.60;1.00
6210;DHT22;3138;52.550;13.148;2023-05-01T01:55:02;1.60;1.00
6210;DHT22;3138;52.550;13.148;2023-05-01T01:57:31;1.60;1.00
6210;DHT22;3138;52.550;13.148;2023-05-01T01:59:58;1.60;1.00
6210;DHT22;3138;52.550;13.148;2023-05-01T02:02:26;1.40;1.00
6210;DHT22;3138;52.550;13.148;2023-05-01T02:04:54;1.40;1.00
6210;DHT22;3138;52.550;13.148;2023-05-01T02:07:24;1.20;1.00
6210;DHT22;3138;52.550;13.148;2023-05-01T02:09:53;1.20;1.00
6210;DHT22;3138;52.550;13.148;2023-05-01T02:12:22;1.20;1.00
6210;DHT22;3138;52.550;13.148;2023-05-01T02:14:52;1.10;1.00
6210;DHT22;3138;52.550;13.148;2023-05-01T02:17:19;1.20;1.00
6210;DHT22;3138;52.550;13.148;2023-05-01T02:19:46;1.10;1.00
6210;DHT22;3138;52.550;13.148;2023-05-01T02:22:14;1.10;1.00
6210;DHT22;3138;52.550;13.148;2023-05-01T02:24:45;1.00;1.00
6210;DHT22;3138;52.550;13.148;2023-05-01T02:27:19;1.00;1.00
6210;DHT22;3138;52.550;13.148;2023-05-01T02:29:46;1.00;1.00
6210;DHT22;3138;52.550;13.148;2023-05-01T02:32:13;1.00;1.00
6210;DHT22;3138;52.550;13.148;2023-05-01T02:34:40;1.00;1.00
6210;DHT22;3138;52.550;13.148;2023-05-01T02:37:07;1.00;1.00
6210;DHT22;3138;52.550;13.148;2023-05-01T02:39:36;1.00;1.00
6210;DHT22;3138;52.550;13.148;2023-05-01T02:42:05;1.00;1.00
6210;DHT22;3138;52.550;13.148;2023-05-01T02:44:38;0.90;1.00
6210;DHT22;3138;52.550;13.148;2023-05-01T02:47:07;0.90;1.00
6210;DHT22;3138;52.550;13.148;2023-05-01T02:49:35;1.00;1.00
6210;DHT22;3138;52.550;13.148;2023-05-01T02:52:04;1.00;30.10
6210;DHT22;3138;52.550;13.148;2023-05-01T02:54:31;1.00;99.90
6210;DHT22;3138;52.550;13.148;2023-05-01T02:56:58;0.90;99.90
6210;DHT22;3138;52.550;13.148;2023-05-01T02:59:26;0.80;99.90
6210;DHT22;3138;52.550;13.148;2023-05-01T03:01:53;0.90;99.90
6210;DHT22;3138;52.550;13.148;2023-05-01T03:04:20;0.90;99.90
6210;DHT22;3138;52.550;13.148;2023-05-01T03:06:47;0.90;99.90
6210;DHT22;3138;52.550;13.148;2023-05-01T03:09:14;0.80;99.90
6210;DHT22;3138;52.550;13.148;2023-05-01T03:11:41;0.80;99.90
6210;DHT22;3138;52.550;13.148;2023-05-01T03:14:08;0.80;99.90
6210;DHT22;3138;52.550;13.148;2023-05-01T03:16:37;0.80;99.90
6210;DHT22;3138;52.550;13.148;2023-05-01T03:19:04;0.80;99.90
6210;DHT22;3138;52.550;13.148;2023-05-01T03:21:31;0.70;99.90
6210;DHT22;3138;52.550;13.148;2023-05-01T03:23:58;0.90;99.90
6210;DHT22;3138;52.550;13.148;2023-05-01T03:26:25;0.80;99.90
6210;DHT22;3138;52.550;13.148;2023-05-01T03:28:52;0.80;99.90
6210;DHT22;3138;52.550;13.148;2023-05-01T03:31:19;0.80;99.90
6210;DHT22;3138;52.550;13.148;2023-05-01T03:33:47;0.80;99.90
6210;DHT22;3138;52.550;13.148;2023-05-01T03:36:14;0.80;4.60
6210;DHT22;3138;52.550;13.148;2023-05-01T03:38:41;0.90;1.00
6210;DHT22;3138;52.550;13.148;2023-05-01T03:41:08;0.90;1.00
6210;DHT22;3138;52.550;13.148;2023-05-01T03:43:35;0.90;1.00
6210;DHT22;3138;52.550;13.148;2023-05-01T03:46:02;0.90;1.00
6210;DHT22;3138;52.550;13.148;2023-05-01T03:48:29;0.90;1.00
6210;DHT22;3138;52.550;13.148;2023-05-01T03:50:57;0.90;7.40
6210;DHT22;3138;52.550;13.148;2023-05-01T03:53:24;0.90;99.90
6210;DHT22;3138;52.550;13.148;2023-05-01T03:55:51;1.00;99.90
6210;DHT22;3138;52.550;13.148;2023-05-01T03:58:18;1.10;99.90
6210;DHT22;3138;52.550;13.148;2023-05-01T04:00:46;1.20;99.90
6210;DHT22;3138;52.550;13.148;2023-05-01T04:03:13;1.20;99.90
6210;DHT22;3138;52.550;13.148;2023-05-01T04:05:40;1.30;99.90
6210;DHT22;3138;52.550;13.148;2023-05-01T04:08:09;1.30;99.90
6210;DHT22;3138;52.550;13.148;2023-05-01T04:10:36;1.30;47.50
6210;DHT22;3138;52.550;13.148;2023-05-01T04:13:03;1.40;17.80
6210;DHT22;3138;52.550;13.148;2023-05-01T04:15:31;1.80;99.90
6210;DHT22;3138;52.550;13.148;2023-05-01T04:17:58;1.90;1.00
6210;DHT22;3138;52.550;13.148;2023-05-01T04:20:25;2.00;1.00
6210;DHT22;3138;52.550;13.148;2023-05-01T04:22:51;2.10;1.00
6210;DHT22;3138;52.550;13.148;2023-05-01T04:25:20;2.30;1.00
6210;DHT22;3138;52.550;13.148;2023-05-01T04:27:47;2.40;99.90
6210;DHT22;3138;52.550;13.148;2023-05-01T04:30:14;2.50;99.90
6210;DHT22;3138;52.550;13.148;2023-05-01T04:32:41;2.50;4.70
6210;DHT22;3138;52.550;13.148;2023-05-01T04:35:08;2.70;57.60
6210;DHT22;3138;52.550;13.148;2023-05-01T04:37:36;2.80;5.10
6210;DHT22;3138;52.550;13.148;2023-05-01T04:40:05;3.00;95.60
6210;DHT22;3138;52.550;13.148;2023-05-01T04:42:33;3.30;99.90
6210;DHT22;3138;52.550;13.148;2023-05-01T04:45:00;3.60;99.90
6210;DHT22;3138;52.550;13.148;2023-05-01T04:47:28;4.00;1.00
6210;DHT22;3138;52.550;13.148;2023-05-01T04:49:55;4.30;99.90
6210;DHT22;3138;52.550;13.148;2023-05-01T04:52:22;4.60;12.00
6210;DHT22;3138;52.550;13.148;2023-05-01T04:54:49;5.00;1.00
6210;DHT22;3138;52.550;13.148;2023-05-01T04:57:16;5.30;1.00
6210;DHT22;3138;52.550;13.148;2023-05-01T04:59:44;5.70;99.90
6210;DHT22;3138;52.550;13.148;2023-05-01T05:02:11;6.20;99.90
6210;DHT22;3138;52.550;13.148;2023-05-01T05:04:37;6.60;1.00
6210;DHT22;3138;52.550;13.148;2023-05-01T05:07:04;7.00;1.00
6210;DHT22;3138;52.550;13.148;2023-05-01T05:09:31;7.20;99.90
6210;DHT22;3138;52.550;13.148;2023-05-01T05:11:58;7.50;99.90
6210;DHT22;3138;52.550;13.148;2023-05-01T05:14:25;7.70;50.40
6210;DHT22;3138;52.550;13.148;2023-05-01T05:16:53;7.90;5.00
6210;DHT22;3138;52.550;13.148;2023-05-01T05:19:20;8.00;1.00
6210;DHT22;3138;52.550;13.148;2023-05-01T05:21:47;8.00;1.00
6210;DHT22;3138;52.550;13.148;2023-05-01T05:24:14;8.20;1.00
6210;DHT22;3138;52.550;13.148;2023-05-01T05:26:41;8.40;1.00
6210;DHT22;3138;52.550;13.148;2023-05-01T05:29:08;8.50;1.00
6210;DHT22;3138;52.550;13.148;2023-05-01T05:31:34;8.60;1.00
6210;DHT22;3138;52.550;13.148;2023-05-01T05:34:03;8.80;1.00
6210;DHT22;3138;52.550;13.148;2023-05-01T05:36:30;8.90;1.00
6210;DHT22;3138;52.550;13.148;2023-05-01T05:38:58;9.20;1.00
6210;DHT22;3138;52.550;13.148;2023-05-01T05:41:25;9.30;28.60
6210;DHT22;3138;52.550;13.148;2023-05-01T05:43:52;9.60;72.60
6210;DHT22;3138;52.550;13.148;2023-05-01T05:46:19;9.80;49.20
6210;DHT22;3138;52.550;13.148;2023-05-01T05:48:46;9.90;21.00
6210;DHT22;3138;52.550;13.148;2023-05-01T05:51:16;10.10;71.80
6210;DHT22;3138;52.550;13.148;2023-05-01T05:53:43;10.30;42.50
6210;DHT22;3138;52.550;13.148;2023-05-01T05:56:10;10.40;99.90
6210;DHT22;3138;52.550;13.148;2023-05-01T05:58:37;10.60;99.90
6210;DHT22;3138;52.550;13.148;2023-05-01T06:01:07;10.30;99.90
6210;DHT22;3138;52.550;13.148;2023-05-01T06:03:33;10.60;99.90
6210;DHT22;3138;52.550;13.148;2023-05-01T06:06:01;10.60;99.90
6210;DHT22;3138;52.550;13.148;2023-05-01T06:08:30;10.60;1.00
6210;DHT22;3138;52.550;13.148;2023-05-01T06:10:56;10.80;1.00
6210;DHT22;3138;52.550;13.148;2023-05-01T06:13:23;11.40;99.90
6210;DHT22;3138;52.550;13.148;2023-05-01T06:15:51;11.40;99.90
6210;DHT22;3138;52.550;13.148;2023-05-01T06:18:18;11.40;1.00
6210;DHT22;3138;52.550;13.148;2023-05-01T06:20:44;11.80;1.00
6210;DHT22;3138;52.550;13.148;2023-05-01T06:23:12;12.10;1.00
6210;DHT22;3138;52.550;13.148;2023-05-01T06:25:41;12.00;1.00
6210;DHT22;3138;52.550;13.148;2023-05-01T06:28:08;12.00;99.90
6210;DHT22;3138;52.550;13.148;2023-05-01T06:30:35;12.30;1.00
6210;DHT22;3138;52.550;13.148;2023-05-01T06:33:02;12.20;1.00
6210;DHT22;3138;52.550;13.148;2023-05-01T06:35:29;12.40;1.00
6210;DHT22;3138;52.550;13.148;2023-05-01T06:37:56;12.50;99.90
6210;DHT22;3138;52.550;13.148;2023-05-01T06:40:24;12.60;99.90
6210;DHT22;3138;52.550;13.148;2023-05-01T06:42:54;13.10;99.90
6210;DHT22;3138;52.550;13.148;2023-05-01T06:45:21;13.30;99.90
6210;DHT22;3138;52.550;13.148;2023-05-01T06:47:48;13.30;99.90
6210;DHT22;3138;52.550;13.148;2023-05-01T06:50:17;13.20;99.90
6210;DHT22;3138;52.550;13.148;2023-05-01T06:52:43;13.40;1.00
6210;DHT22;3138;52.550;13.148;2023-05-01T06:55:10;13.30;1.00
6210;DHT22;3138;52.550;13.148;2023-05-01T06:57:37;12.90;1.00
6210;DHT22;3138;52.550;13.148;2023-05-01T07:00:07;13.30;1.00
6210;DHT22;3138;52.550;13.148;2023-05-01T07:02:35;13.20;1.00
6210;DHT22;3138;52.550;13.148;2023-05-01T07:05:02;13.50;1.00
6210;DHT22;3138;52.550;13.148;2023-05-01T07:07:32;13.70;87.40
6210;DHT22;3138;52.550;13.148;2023-05-01T07:10:00;13.90;1.00
6210;DHT22;3138;52.550;13.148;2023-05-01T07:12:27;14.00;1.00
6210;DHT22;3138;52.550;13.148;2023-05-01T07:14:55;14.00;1.00
6210;DHT22;3138;52.550;13.148;2023-05-01T07:17:23;14.10;99.90
6210;DHT22;3138;52.550;13.148;2023-05-01T07:19:51;14.30;1.00
6210;DHT22;3138;52.550;13.148;2023-05-01T07:22:18;14.40;1.00
6210;DHT22;3138;52.550;13.148;2023-05-01T07:24:44;14.30;99.90
6210;DHT22;3138;52.550;13.148;2023-05-01T07:27:11;14.50;99.90
6210;DHT22;3138;52.550;13.148;2023-05-01T07:29:38;14.20;1.00
6210;DHT22;3138;52.550;13.148;2023-05-01T07:32:05;14.40;1.00
6210;DHT22;3138;52.550;13.148;2023-05-01T07:34:33;14.70;1.00
6210;DHT22;3138;52.550;13.148;2023-05-01T07:37:00;14.80;1.00
6210;DHT22;3138;52.550;13.148;2023-05-01T07:39:29;14.80;1.00
6210;DHT22;3138;52.550;13.148;2023-05-01T07:41:56;14.80;1.00
6210;DHT22;3138;52.550;13.148;2023-05-01T07:44:23;14.70;99.90
6210;DHT22;3138;52.550;13.148;2023-05-01T07:46:50;14.50;1.00
6210;DHT22;3138;52.550;13.148;2023-05-01T07:49:16;14.70;99.90
6210;DHT22;3138;52.550;13.148;2023-05-01T07:51:45;15.10;99.90
6210;DHT22;3138;52.550;13.148;2023-05-01T07:54:12;15.10;1.00
6210;DHT22;3138;52.550;13.148;2023-05-01T07:56:40;15.10;99.90
6210;DHT22;3138;52.550;13.148;2023-05-01T07:59:07;15.50;17.90
6210;DHT22;3138;52.550;13.148;2023-05-01T08:01:35;15.70;99.90
6210;DHT22;3138;52.550;13.148;2023-05-01T08:04:02;16.10;1.00
6210;DHT22;3138;52.550;13.148;2023-05-01T08:06:29;16.20;99.90
6210;DHT22;3138;52.550;13.148;2023-05-01T08:08:58;16.40;99.90
6210;DHT22;3138;52.550;13.148;2023-05-01T08:11:25;16.40;99.90
6210;DHT22;3138;52.550;13.148;2023-05-01T08:13:53;16.60;1.00
6210;DHT22;3138;52.550;13.148;2023-05-01T08:16:20;16.70;99.90
6210;DHT22;3138;52.550;13.148;2023-05-01T08:18:47;16.70;99.90
6210;DHT22;3138;52.550;13.148;2023-05-01T08:21:14;16.70;99.90
6210;DHT22;3138;52.550;13.148;2023-05-01T08:23:41;16.60;99.90
6210;DHT22;3138;52.550;13.148;2023-05-01T08:26:09;16.70;1.00
6210;DHT22;3138;52.550;13.148;2023-05-01T08:28:36;16.40;99.90
6210;DHT22;3138;52.550;13.148;2023-05-01T08:31:03;16.70;90.10
6210;DHT22;3138;52.550;13.148;2023-05-01T08:33:30;16.70;1.00
6210;DHT22;3138;52.550;13.148;2023-05-01T08:35:58;16.80;1.00
6210;DHT22;3138;52.550;13.148;2023-05-01T08:38:24;16.80;1.00
6210;DHT22;3138;52.550;13.148;2023-05-01T08:40:52;16.80;99.90
6210;DHT22;3138;52.550;13.148;2023-05-01T08:43:22;17.30;1.00
6210;DHT22;3138;52.550;13.148;2023-05-01T08:45:53;17.80;99.90
6210;DHT22;3138;52.550;13.148;2023-05-01T08:48:22;18.00;99.90
6210;DHT22;3138;52.550;13.148;2023-05-01T08:50:54;17.50;1.00
6210;DHT22;3138;52.550;13.148;2023-05-01T08:53:23;17.60;60.10
6210;DHT22;3138;52.550;13.148;2023-05-01T08:55:51;17.70;1.00
6210;DHT22;3138;52.550;13.148;2023-05-01T08:58:18;17.70;99.90
6210;DHT22;3138;52.550;13.148;2023-05-01T09:00:47;17.30;99.90
6210;DHT22;3138;52.550;13.148;2023-05-01T09:03:14;17.70;99.90
6210;DHT22;3138;52.550;13.148;2023-05-01T09:05:42;18.00;1.00
6210;DHT22;3138;52.550;13.148;2023-05-01T09:08:09;18.50;1.00
6210;DHT22;3138;52.550;13.148;2023-05-01T09:10:40;18.30;1.00
6210;DHT22;3138;52.550;13.148;2023-05-01T09:13:08;18.00;99.90
6210;DHT22;3138;52.550;13.148;2023-05-01T09:15:34;17.80;1.00
6210;DHT22;3138;52.550;13.148;2023-05-01T09:18:03;17.80;1.00
6210;DHT22;3138;52.550;13.148;2023-05-01T09:20:30;18.20;1.00
6210;DHT22;3138;52.550;13.148;2023-05-01T09:22:57;18.20;99.90
6210;DHT22;3138;52.550;13.148;2023-05-01T09:25:24;18.00;63.40
6210;DHT22;3138;52.550;13.148;2023-05-01T09:27:51;18.20;99.90
6210;DHT22;3138;52.550;13.148;2023-05-01T09:30:32;18.30;99.90
6210;DHT22;3138;52.550;13.148;2023-05-01T09:33:07;18.30;99.90
6210;DHT22;3138;52.550;13.148;2023-05-01T09:35:48;18.60;99.90
6210;DHT22;3138;52.550;13.148;2023-05-01T09:38:23;19.00;99.90
6210;DHT22;3138;52.550;13.148;2023-05-01T09:40:50;18.60;99.90
6210;DHT22;3138;52.550;13.148;2023-05-01T09:43:24;18.60;99.90
6210;DHT22;3138;52.550;13.148;2023-05-01T09:46:02;18.60;99.90
6210;DHT22;3138;52.550;13.148;2023-05-01T09:48:32;18.50;1.00
6210;DHT22;3138;52.550;13.148;2023-05-01T09:50:59;18.10;99.90
6210;DHT22;3138;52.550;13.148;2023-05-01T09:53:38;18.10;99.90
6210;DHT22;3138;52.550;13.148;2023-05-01T09:56:06;18.50;99.90
6210;DHT22;3138;52.550;13.148;2023-05-01T09:58:34;18.00;99.90
6210;DHT22;3138;52.550;13.148;2023-05-01T10:01:01;18.80;99.90
6210;DHT22;3138;52.550;13.148;2023-05-01T10:03:28;18.90;1.00
6210;DHT22;3138;52.550;13.148;2023-05-01T10:05:57;19.60;1.00
6210;DHT22;3138;52.550;13.148;2023-05-01T10:08:28;19.50;99.90
6210;DHT22;3138;52.550;13.148;2023-05-01T10:11:09;19.40;99.90
6210;DHT22;3138;52.550;13.148;2023-05-01T10:13:35;19.10;99.90
6210;DHT22;3138;52.550;13.148;2023-05-01T10:16:02;19.00;99.90
6210;DHT22;3138;52.550;13.148;2023-05-01T10:18:33;19.20;99.90
6210;DHT22;3138;52.550;13.148;2023-05-01T10:21:02;19.20;1.00
6210;DHT22;3138;52.550;13.148;2023-05-01T10:23:29;19.30;1.00
6210;DHT22;3138;52.550;13.148;2023-05-01T10:25:56;19.30;1.00
6210;DHT22;3138;52.550;13.148;2023-05-01T10:28:24;19.40;99.90
6210;DHT22;3138;52.550;13.148;2023-05-01T10:30:54;19.60;99.90
6210;DHT22;3138;52.550;13.148;2023-05-01T10:33:21;18.80;1.00
6210;DHT22;3138;52.550;13.148;2023-05-01T10:35:55;19.00;1.00
6210;DHT22;3138;52.550;13.148;2023-05-01T10:38:27;19.10;1.00
6210;DHT22;3138;52.550;13.148;2023-05-01T10:40:58;19.20;1.00
6210;DHT22;3138;52.550;13.148;2023-05-01T10:43:26;19.30;1.00
6210;DHT22;3138;52.550;13.148;2023-05-01T10:46:25;19.30;99.90
6210;DHT22;3138;52.550;13.148;2023-05-01T10:48:56;19.40;99.90
6210;DHT22;3138;52.550;13.148;2023-05-01T10:51:24;19.30;1.00
6210;DHT22;3138;52.550;13.148;2023-05-01T10:54:24;19.60;1.00
6210;DHT22;3138;52.550;13.148;2023-05-01T10:56:52;19.80;99.90
6210;DHT22;3138;52.550;13.148;2023-05-01T10:59:19;20.20;99.90
6210;DHT22;3138;52.550;13.148;2023-05-01T11:01:46;20.10;99.90
6210;DHT22;3138;52.550;13.148;2023-05-01T11:04:46;19.90;99.90
6210;DHT22;3138;52.550;13.148;2023-05-01T11:07:19;18.80;99.90
6210;DHT22;3138;52.550;13.148;2023-05-01T11:09:49;18.70;99.90
6210;DHT22;3138;52.550;13.148;2023-05-01T11:12:48;19.10;99.90
6210;DHT22;3138;52.550;13.148;2023-05-01T11:15:29;19.60;99.90
6210;DHT22;3138;52.550;13.148;2023-05-01T11:17:57;19.90;99.90
6210;DHT22;3138;52.550;13.148;2023-05-01T11:20:46;19.90;99.90
6210;DHT22;3138;52.550;13.148;2023-05-01T11:23:20;19.30;99.90
6210;DHT22;3138;52.550;13.148;2023-05-01T11:26:03;19.70;99.90
6210;DHT22;3138;52.550;13.148;2023-05-01T11:28:33;19.60;99.90
6210;DHT22;3138;52.550;13.148;2023-05-01T11:31:01;19.90;99.90
6210;DHT22;3138;52.550;13.148;2023-05-01T11:33:28;19.60;1.00
6210;DHT22;3138;52.550;13.148;2023-05-01T11:36:01;19.30;99.90
6210;DHT22;3138;52.550;13.148;2023-05-01T11:38:29;19.20;99.90
6210;DHT22;3138;52.550;13.148;2023-05-01T11:41:02;20.00;99.90
6210;DHT22;3138;52.550;13.148;2023-05-01T11:43:30;20.20;99.90
6210;DHT22;3138;52.550;13.148;2023-05-01T11:45:57;20.40;99.90
6210;DHT22;3138;52.550;13.148;2023-05-01T11:48:28;20.80;99.90
6210;DHT22;3138;52.550;13.148;2023-05-01T11:50:56;20.90;99.90
6210;DHT22;3138;52.550;13.148;2023-05-01T11:53:23;20.90;99.90
6210;DHT22;3138;52.550;13.148;2023-05-01T11:55:49;21.00;99.90
6210;DHT22;3138;52.550;13.148;2023-05-01T11:58:29;20.90;99.90
6210;DHT22;3138;52.550;13.148;2023-05-01T12:00:57;21.00;99.90
6210;DHT22;3138;52.550;13.148;2023-05-01T12:03:24;20.80;99.90
6210;DHT22;3138;52.550;13.148;2023-05-01T12:05:51;20.70;99.90
6210;DHT22;3138;52.550;13.148;2023-05-01T12:08:20;20.30;99.90
6210;DHT22;3138;52.550;13.148;2023-05-01T12:10:49;20.60;99.90
6210;DHT22;3138;52.550;13.148;2023-05-01T12:13:19;20.80;99.90
6210;DHT22;3138;52.550;13.148;2023-05-01T12:15:47;20.90;99.90
6210;DHT22;3138;52.550;13.148;2023-05-01T12:18:15;20.80;99.90
6210;DHT22;3138;52.550;13.148;2023-05-01T12:20:43;20.70;99.90
6210;DHT22;3138;52.550;13.148;2023-05-01T12:23:12;20.40;99.90
6210;DHT22;3138;52.550;13.148;2023-05-01T12:25:41;19.80;99.90
6210;DHT22;3138;52.550;13.148;2023-05-01T12:28:11;19.80;99.90
6210;DHT22;3138;52.550;13.148;2023-05-01T12:30:40;20.00;99.90
6210;DHT22;3138;52.550;13.148;2023-05-01T12:33:09;19.60;99.90
6210;DHT22;3138;52.550;13.148;2023-05-01T12:35:37;20.10;99.90
6210;DHT22;3138;52.550;13.148;2023-05-01T12:38:12;20.20;99.90
6210;DHT22;3138;52.550;13.148;2023-05-01T12:40:47;19.80;99.90
6210;DHT22;3138;52.550;13.148;2023-05-01T12:43:15;20.20;99.90
6210;DHT22;3138;52.550;13.148;2023-05-01T12:45:43;20.60;99.90
6210;DHT22;3138;52.550;13.148;2023-05-01T12:48:13;20.80;1.00
6210;DHT22;3138;52.550;13.148;2023-05-01T12:50:41;20.80;1.00
6210;DHT22;3138;52.550;13.148;2023-05-01T12:53:09;20.90;1.00
6210;DHT22;3138;52.550;13.148;2023-05-01T12:55:43;20.90;99.90
6210;DHT22;3138;52.550;13.148;2023-05-01T12:58:11;20.90;99.90
6210;DHT22;3138;52.550;13.148;2023-05-01T13:00:44;20.70;99.90
6210;DHT22;3138;52.550;13.148;2023-05-01T13:03:11;20.60;99.90
6210;DHT22;3138;52.550;13.148;2023-05-01T13:05:52;20.30;99.90
6210;DHT22;3138;52.550;13.148;2023-05-01T13:08:24;20.60;99.90
6210;DHT22;3138;52.550;13.148;2023-05-01T13:10:53;20.40;99.90
6210;DHT22;3138;52.550;13.148;2023-05-01T13:13:27;20.40;99.90
6210;DHT22;3138;52.550;13.148;2023-05-01T13:16:05;20.70;99.90
6210;DHT22;3138;52.550;13.148;2023-05-01T13:18:32;20.70;99.90
6210;DHT22;3138;52.550;13.148;2023-05-01T13:21:09;20.60;99.90
6210;DHT22;3138;52.550;13.148;2023-05-01T13:23:37;20.60;99.90
6210;DHT22;3138;52.550;13.148;2023-05-01T13:26:06;20.80;99.90
6210;DHT22;3138;52.550;13.148;2023-05-01T13:28:34;20.80;99.90
6210;DHT22;3138;52.550;13.148;2023-05-01T13:31:10;21.30;99.90
6210;DHT22;3138;52.550;13.148;2023-05-01T13:33:38;21.30;99.90
6210;DHT22;3138;52.550;13.148;2023-05-01T13:36:06;20.60;99.90
6210;DHT22;3138;52.550;13.148;2023-05-01T13:38:40;20.70;99.90
6210;DHT22;3138;52.550;13.148;2023-05-01T13:41:07;20.40;99.90
6210;DHT22;3138;52.550;13.148;2023-05-01T13:43:38;20.70;94.30
6210;DHT22;3138;52.550;13.148;2023-05-01T13:46:09;20.70;99.90
6210;DHT22;3138;52.550;13.148;2023-05-01T13:48:38;21.10;99.90
6210;DHT22;3138;52.550;13.148;2023-05-01T13:51:05;21.20;99.90
6210;DHT22;3138;52.550;13.148;2023-05-01T13:53:33;21.40;1.00
6210;DHT22;3138;52.550;13.148;2023-05-01T13:56:00;21.60;1.00
6210;DHT22;3138;52.550;13.148;2023-05-01T13:58:28;21.60;1.00
6210;DHT22;3138;52.550;13.148;2023-05-01T14:00:56;21.70;99.90
6210;DHT22;3138;52.550;13.148;2023-05-01T14:03:24;21.40;99.90
6210;DHT22;3138;52.550;13.148;2023-05-01T14:05:51;21.10;99.90
6210;DHT22;3138;52.550;13.148;2023-05-01T14:08:19;21.10;99.90
6210;DHT22;3138;52.550;13.148;2023-05-01T14:10:47;20.90;23.40
6210;DHT22;3138;52.550;13.148;2023-05-01T14:13:16;20.80;99.90
6210;DHT22;3138;52.550;13.148;2023-05-01T14:15:43;21.10;99.90
6210;DHT22;3138;52.550;13.148;2023-05-01T14:18:10;21.20;1.00
6210;DHT22;3138;52.550;13.148;2023-05-01T14:20:43;21.30;99.90
6210;DHT22;3138;52.550;13.148;2023-05-01T14:23:11;21.10;99.90
6210;DHT22;3138;52.550;13.148;2023-05-01T14:25:39;21.10;99.90
6210;DHT22;3138;52.550;13.148;2023-05-01T14:28:06;21.00;99.90
6210;DHT22;3138;52.550;13.148;2023-05-01T14:30:34;20.80;99.90
6210;DHT22;3138;52.550;13.148;2023-05-01T14:33:03;20.60;99.90
6210;DHT22;3138;52.550;13.148;2023-05-01T14:35:30;20.60;1.00
6210;DHT22;3138;52.550;13.148;2023-05-01T14:38:06;20.50;99.90
6210;DHT22;3138;52.550;13.148;2023-05-01T14:40:33;20.50;99.90
6210;DHT22;3138;52.550;13.148;2023-05-01T14:43:00;20.20;99.90
6210;DHT22;3138;52.550;13.148;2023-05-01T14:45:28;20.30;99.90
6210;DHT22;3138;52.550;13.148;2023-05-01T14:47:56;20.60;99.90
6210;DHT22;3138;52.550;13.148;2023-05-01T14:50:23;20.50;99.90
6210;DHT22;3138;52.550;13.148;2023-05-01T14:52:54;20.60;99.90
6210;DHT22;3138;52.550;13.148;2023-05-01T14:55:25;20.30;99.90
6210;DHT22;3138;52.550;13.148;2023-05-01T14:57:52;20.60;99.90
6210;DHT22;3138;52.550;13.148;2023-05-01T15:00:19;20.70;99.90
6210;DHT22;3138;52.550;13.148;2023-05-01T15:02:46;20.80;99.90
6210;DHT22;3138;52.550;13.148;2023-05-01T15:05:13;20.70;99.90
6210;DHT22;3138;52.550;13.148;2023-05-01T15:07:40;20.50;99.90
6210;DHT22;3138;52.550;13.148;2023-05-01T15:10:08;20.30;99.90
6210;DHT22;3138;52.550;13.148;2023-05-01T15:12:37;20.10;1.00
6210;DHT22;3138;52.550;13.148;2023-05-01T15:15:04;20.00;99.90
6210;DHT22;3138;52.550;13.148;2023-05-01T15:17:32;19.80;99.90
6210;DHT22;3138;52.550;13.148;2023-05-01T15:19:59;19.70;1.00
6210;DHT22;3138;52.550;13.148;2023-05-01T15:22:26;19.70;99.90
6210;DHT22;3138;52.550;13.148;2023-05-01T15:24:53;19.70;99.90
6210;DHT22;3138;52.550;13.148;2023-05-01T15:27:20;19.60;99.90
6210;DHT22;3138;52.550;13.148;2023-05-01T15:29:48;19.70;99.90
6210;DHT22;3138;52.550;13.148;2023-05-01T15:32:15;19.60;99.90
6210;DHT22;3138;52.550;13.148;2023-05-01T15:34:42;19.50;99.90
6210;DHT22;3138;52.550;13.148;2023-05-01T15:37:09;19.60;99.90
6210;DHT22;3138;52.550;13.148;2023-05-01T15:39:36;19.60;99.90
6210;DHT22;3138;52.550;13.148;2023-05-01T15:42:04;19.50;1.00
6210;DHT22;3138;52.550;13.148;2023-05-01T15:44:32;19.50;99.90
6210;DHT22;3138;52.550;13.148;2023-05-01T15:47:00;19.50;1.00
6210;DHT22;3138;52.550;13.148;2023-05-01T15:49:27;19.40;99.90
6210;DHT22;3138;52.550;13.148;2023-05-01T15:51:54;19.40;99.90
6210;DHT22;3138;52.550;13.148;2023-05-01T15:54:21;19.40;99.90
6210;DHT22;3138;52.550;13.148;2023-05-01T15:56:49;19.40;99.90
6210;DHT22;3138;52.550;13.148;2023-05-01T15:59:16;19.40;1.00
6210;DHT22;3138;52.550;13.148;2023-05-01T16:01:42;19.40;99.90
6210;DHT22;3138;52.550;13.148;2023-05-01T16:04:11;19.40;99.90
6210;DHT22;3138;52.550;13.148;2023-05-01T16:06:39;19.40;99.90
6210;DHT22;3138;52.550;13.148;2023-05-01T16:09:06;19.40;99.90
6210;DHT22;3138;52.550;13.148;2023-05-01T16:11:33;19.50;99.90
6210;DHT22;3138;52.550;13.148;2023-05-01T16:14:01;19.40;1.00